バマコ の空港の天気 - METARとTAF

バマコ・セヌー国際空港 ( GABS / BKO ) - マリ バマコ
飛行場実況気象(Metar)
観測時間07/18 12:30 GMT (07/18 12:30 UTC)
風向・風速西北西 3m/s
視程10km以上
天気現象
全天の4割程度の雲 雲底高度 610m
気温31℃
湿度55%
気圧1016hPa
METARGABS 181230Z 30005KT 240V350 9999 SCT020 31/21 Q1016 NOSIG
過去の天気等 Google飛行場航空写真 Wunderground天気予報

過去48時間のMETAR

飛行場予報(TAF)
発表時間: 7/18 11:00 GMT (7/18 11:00 UTC)
予報対象時間: 18日12時 GMT ~ 19日18時 GMT
風向・風速西南西 3m/s
視程10km以上
全天の4割程度の雲 雲底高度 760m
18日16時 GMT ~ 18日22時 GMT に一時的に
風向・風速東 10m/s 瞬間風速 21m/s
視程4000m
天気現象雷雨
全天の8割程度の雲 雲底高度 760m
少しの積乱雲 雲底高度 1010m
19日14時 GMT ~ 19日18時 GMT に 確率 40% で一時的に
天気現象
全天の4割程度の雲 雲底高度 760m
少しの積乱雲 雲底高度 1010m
TAF GABS 181100Z 1812/1918 24006KT 9999 SCT025
TEMPO 1816/1822 08020G40KT 4000 TSRA BKN025 FEW033CB
PROB40 TEMPO 1914/1918 TS SCT025 FEW033CB